Time;durP1;ratioP1;P1;durP2;ratioP2;P2;SDS_P1;SDS_P2;PMS_P1;PMS_P2;Temp;Humidity;BMP_temperature;BMP_pressure;BME280_temperature;BME280_humidity;BME280_pressure;Samples;Min_cycle;Max_cycle;Signal;HPM_P1;HPM_P2
2024/01/04 00:00:23;;;;;;;13.02;5.82;;;;;;;7.46;100.00;99425.88;5112673;27;20035;-81
2024/01/04 00:02:49;;;;;;;19.08;6.28;;;;;;;7.48;100.00;99423.94;5114502;27;20027;-81
2024/01/04 00:05:14;;;;;;;15.07;5.78;;;;;;;7.49;100.00;99433.47;5111176;27;20118;-81
2024/01/04 00:07:39;;;;;;;16.00;6.00;;;;;;;7.51;100.00;99439.38;5109433;27;20026;-82
2024/01/04 00:10:05;;;;;;;12.77;5.22;;;;;;;7.52;100.00;99445.44;5127399;27;20396;-82
2024/01/04 00:12:31;;;;;;;15.27;5.22;;;;;;;7.53;100.00;99453.19;5111452;27;20076;-81
2024/01/04 00:14:59;;;;;;;17.33;5.82;;;;;;;7.54;100.00;99457.44;5093709;28;20020;-82
2024/01/04 00:17:24;;;;;;;15.48;5.40;;;;;;;7.53;100.00;99474.13;5109907;27;20039;-82
2024/01/04 00:19:50;;;;;;;13.90;5.53;;;;;;;7.53;100.00;99474.13;5128947;27;20022;-80
2024/01/04 00:22:18;;;;;;;15.10;5.25;;;;;;;7.54;100.00;99486.25;5125250;27;20027;-81
2024/01/04 00:24:43;;;;;;;19.80;5.50;;;;;;;7.54;100.00;99485.41;5102443;27;20038;-81
2024/01/04 00:27:09;;;;;;;12.38;5.15;;;;;;;7.55;100.00;99495.75;5132425;27;20019;-80
2024/01/04 00:29:34;;;;;;;15.65;5.18;;;;;;;7.54;100.00;99490.66;5114367;27;20023;-80
2024/01/04 00:31:59;;;;;;;11.65;4.93;;;;;;;7.52;100.00;99493.38;5131843;27;20029;-81
2024/01/04 00:34:25;;;;;;;13.23;4.43;;;;;;;7.53;100.00;99505.53;5133144;27;20054;-80
2024/01/04 00:36:50;;;;;;;10.63;4.20;;;;;;;7.52;100.00;99523.97;5133026;27;20023;-81
2024/01/04 00:39:16;;;;;;;9.23;4.05;;;;;;;7.52;100.00;99522.19;5112831;27;20084;-81
2024/01/04 00:41:41;;;;;;;13.65;4.32;;;;;;;7.52;100.00;99531.81;5132531;27;20561;-81
2024/01/04 00:44:06;;;;;;;10.77;4.25;;;;;;;7.50;100.00;99542.41;5111358;27;20042;-81
2024/01/04 00:46:32;;;;;;;10.93;4.18;;;;;;;7.49;100.00;99546.00;5112675;27;20110;-81
2024/01/04 00:48:58;;;;;;;10.57;3.92;;;;;;;7.49;100.00;99546.00;5130808;27;20035;-81
2024/01/04 00:51:23;;;;;;;12.95;4.22;;;;;;;7.45;100.00;99557.66;5112972;27;20027;-81
2024/01/04 00:53:48;;;;;;;11.70;4.43;;;;;;;7.46;100.00;99556.72;5131361;27;20059;-81
2024/01/04 00:56:14;;;;;;;9.25;3.63;;;;;;;7.46;100.00;99566.34;5112931;27;20072;-81
2024/01/04 00:58:39;;;;;;;8.77;3.70;;;;;;;7.47;100.00;99573.25;5121278;27;20031;-81
2024/01/04 01:01:05;;;;;;;9.23;3.42;;;;;;;7.46;100.00;99579.44;5092510;28;20476;-81
2024/01/04 01:03:30;;;;;;;13.85;4.10;;;;;;;7.46;100.00;99582.03;5093128;27;20163;-81
2024/01/04 01:05:56;;;;;;;10.57;3.88;;;;;;;7.45;100.00;99591.69;5126240;27;20023;-81
2024/01/04 01:08:21;;;;;;;11.68;3.67;;;;;;;7.44;100.00;99587.41;5117689;27;20068;-81
2024/01/04 01:10:47;;;;;;;14.35;4.22;;;;;;;7.45;100.00;99596.91;5100076;27;20031;-81
2024/01/04 01:13:14;;;;;;;10.25;4.10;;;;;;;7.45;100.00;99603.94;5092735;28;20031;-81
2024/01/04 01:15:39;;;;;;;13.15;4.20;;;;;;;7.45;100.00;99610.00;5093715;28;20200;-81
2024/01/04 01:18:05;;;;;;;10.85;4.60;;;;;;;7.44;100.00;99605.72;5123850;27;20435;-81
2024/01/04 01:20:30;;;;;;;11.75;4.57;;;;;;;7.45;100.00;99617.03;5095070;28;20035;-81
2024/01/04 01:22:55;;;;;;;8.35;4.00;;;;;;;7.44;100.00;99616.19;5112040;27;20035;-81
2024/01/04 01:25:21;;;;;;;15.30;4.85;;;;;;;7.44;100.00;99616.19;5118786;27;20035;-81
2024/01/04 01:27:46;;;;;;;11.15;4.20;;;;;;;7.44;100.00;99612.75;5119731;27;20060;-81
2024/01/04 01:30:11;;;;;;;9.65;4.22;;;;;;;7.44;100.00;99616.19;5118412;27;20381;-81
2024/01/04 01:32:37;;;;;;;11.43;3.78;;;;;;;7.45;100.00;99630.09;5122560;27;20028;-82
2024/01/04 01:35:03;;;;;;;10.18;3.88;;;;;;;7.46;100.00;99632.59;5110061;27;20030;-81
2024/01/04 01:37:28;;;;;;;11.95;3.58;;;;;;;7.46;100.00;99640.44;5103247;27;20015;-81
2024/01/04 01:39:54;;;;;;;9.65;3.88;;;;;;;7.47;100.00;99642.13;5126841;27;20027;-81
2024/01/04 01:42:20;;;;;;;10.88;3.15;;;;;;;7.47;100.00;99656.97;5125954;27;20095;-81
2024/01/04 01:44:46;;;;;;;15.18;4.15;;;;;;;7.46;100.00;99661.38;5131581;27;20027;-81
2024/01/04 01:47:12;;;;;;;14.32;3.80;;;;;;;7.45;100.00;99662.34;5108401;27;20027;-81
2024/01/04 01:49:37;;;;;;;12.35;3.90;;;;;;;7.45;100.00;99670.19;5099854;28;20031;-81
2024/01/04 01:52:03;;;;;;;10.07;3.40;;;;;;;7.45;100.00;99669.38;5111683;27;20027;-81
2024/01/04 01:54:28;;;;;;;10.90;3.90;;;;;;;7.46;100.00;99681.50;5096605;27;20091;-80
2024/01/04 01:56:55;;;;;;;10.95;3.70;;;;;;;7.43;100.00;99682.56;5109989;28;20100;-80
2024/01/04 01:59:21;;;;;;;12.43;3.90;;;;;;;7.44;100.00;99679.00;5099763;27;20023;-81
2024/01/04 02:01:46;;;;;;;14.43;4.40;;;;;;;7.43;100.00;99682.56;5126024;27;20079;-81
2024/01/04 02:04:11;;;;;;;12.98;3.97;;;;;;;7.41;100.00;99699.34;5100313;28;20023;-82
2024/01/04 02:06:37;;;;;;;15.95;4.15;;;;;;;7.41;100.00;99694.94;5097138;27;20100;-81
2024/01/04 02:09:02;;;;;;;13.68;3.33;;;;;;;7.40;100.00;99693.28;5111878;27;20130;-82
2024/01/04 02:11:28;;;;;;;12.88;3.60;;;;;;;7.39;100.00;99704.69;5106620;28;20028;-81
2024/01/04 02:13:53;;;;;;;11.93;3.25;;;;;;;7.39;100.00;99699.47;5117382;27;20031;-82
2024/01/04 02:16:19;;;;;;;11.07;3.92;;;;;;;7.38;100.00;99710.88;5128393;27;20023;-82
2024/01/04 02:18:45;;;;;;;10.48;3.80;;;;;;;7.37;100.00;99719.69;5110122;27;20036;-82
2024/01/04 02:21:10;;;;;;;12.32;4.10;;;;;;;7.37;100.00;99718.88;5103028;27;20046;-81
2024/01/04 02:23:36;;;;;;;11.15;3.63;;;;;;;7.37;100.00;99724.94;5117062;27;20019;-82
2024/01/04 02:26:01;;;;;;;11.65;4.63;;;;;;;7.36;100.00;99733.72;5098204;28;20034;-82
2024/01/04 02:28:30;;;;;;;15.10;4.72;;;;;;;7.36;100.00;99738.97;5091898;27;20038;-82
2024/01/04 02:30:55;;;;;;;13.50;4.60;;;;;;;7.38;100.00;99731.00;5109884;27;20036;-82
2024/01/04 02:33:21;;;;;;;16.92;5.20;;;;;;;7.37;100.00;99735.38;5090463;28;20039;-82
2024/01/04 02:35:46;;;;;;;13.90;4.45;;;;;;;7.36;100.00;99736.34;5111843;27;20042;-82
2024/01/04 02:38:11;;;;;;;17.52;4.72;;;;;;;7.40;100.00;99739.56;5121020;27;20030;-82
2024/01/04 02:40:38;;;;;;;15.07;4.50;;;;;;;7.39;100.00;99748.34;5105442;28;20084;-82
2024/01/04 02:43:09;;;;;;;14.85;5.43;;;;;;;7.39;100.00;99743.13;5109641;27;20055;-82
2024/01/04 02:45:34;;;;;;;11.95;4.75;;;;;;;7.40;100.00;99747.41;5109003;28;20552;-82
2024/01/04 02:47:59;;;;;;;12.30;4.45;;;;;;;7.40;100.00;99744.78;5129363;27;20023;-82
2024/01/04 02:50:25;;;;;;;9.23;4.20;;;;;;;7.39;100.00;99754.41;5130161;27;20109;-81
2024/01/04 02:52:50;;;;;;;7.22;3.50;;;;;;;7.37;100.00;99755.50;5098269;28;20047;-81
2024/01/04 02:55:15;;;;;;;8.50;3.25;;;;;;;7.34;100.00;99755.72;5116967;27;20023;-81
2024/01/04 02:57:41;;;;;;;7.72;2.80;;;;;;;7.31;100.00;99756.81;5108124;27;20027;-81
2024/01/04 03:00:07;;;;;;;6.75;2.50;;;;;;;7.29;100.00;99757.88;5114752;27;20084;-81
2024/01/04 03:02:32;;;;;;;7.72;2.47;;;;;;;7.21;100.00;99755.88;5115729;27;20110;-81
2024/01/04 03:04:58;;;;;;;4.95;1.90;;;;;;;7.20;100.00;99768.13;5127671;27;20600;-81
2024/01/04 03:07:23;;;;;;;7.13;2.05;;;;;;;7.17;100.00;99775.34;5116655;27;20506;-81
2024/01/04 03:09:48;;;;;;;5.85;2.20;;;;;;;7.16;100.00;99779.72;5128666;27;20390;-81
2024/01/04 03:12:14;;;;;;;7.97;2.85;;;;;;;7.17;100.00;99777.94;5124164;27;20531;-81
2024/01/04 03:14:39;;;;;;;6.00;2.38;;;;;;;7.10;100.00;99788.06;5113917;27;20027;-81
2024/01/04 03:17:05;;;;;;;5.95;2.53;;;;;;;7.11;100.00;99783.66;5121444;27;20095;-82
2024/01/04 03:19:30;;;;;;;5.85;2.55;;;;;;;7.12;100.00;99798.41;5127447;27;20019;-81
2024/01/04 03:21:55;;;;;;;6.70;2.83;;;;;;;7.11;100.00;99789.72;5112052;27;20425;-82
2024/01/04 03:24:20;;;;;;;6.93;3.30;;;;;;;7.09;100.00;99798.63;5099045;28;20414;-82
2024/01/04 03:26:46;;;;;;;6.43;3.30;;;;;;;7.08;100.00;99795.19;5115363;27;20027;-82
2024/01/04 03:29:11;;;;;;;8.90;3.40;;;;;;;7.06;100.00;99799.72;5112368;28;20023;-82
2024/01/04 03:31:37;;;;;;;8.18;3.35;;;;;;;7.06;100.00;99799.72;5115943;28;20055;-81
2024/01/04 03:34:02;;;;;;;7.18;3.40;;;;;;;7.03;100.00;99804.34;5109629;28;20748;-82
2024/01/04 03:36:27;;;;;;;7.20;4.22;;;;;;;6.99;100.00;99803.75;5128110;27;20102;-82
2024/01/04 03:38:53;;;;;;;6.90;4.03;;;;;;;6.98;100.00;99815.16;5115868;28;20031;-81
2024/01/04 03:41:18;;;;;;;11.18;4.47;;;;;;;6.97;100.00;99817.88;5120588;27;20103;-82
2024/01/04 03:43:43;;;;;;;12.95;5.00;;;;;;;6.97;100.00;99820.50;5109512;28;20037;-82
2024/01/04 03:46:09;;;;;;;9.73;5.22;;;;;;;6.99;100.00;99823.81;5109544;28;20532;-82
2024/01/04 03:48:35;;;;;;;9.90;5.18;;;;;;;6.99;100.00;99823.81;5097658;28;20297;-82
2024/01/04 03:51:01;;;;;;;15.63;5.93;;;;;;;6.98;100.00;99828.22;5123376;27;20034;-80
2024/01/04 03:53:26;;;;;;;12.20;5.28;;;;;;;7.00;100.00;99835.97;5115350;27;20106;-81
2024/01/04 03:55:51;;;;;;;11.20;6.00;;;;;;;7.01;100.00;99827.16;5109693;28;20433;-80
2024/01/04 03:58:17;;;;;;;11.10;5.70;;;;;;;7.02;100.00;99836.66;5093688;28;20495;-81
2024/01/04 04:00:42;;;;;;;15.73;6.45;;;;;;;7.01;100.00;99835.00;5097223;28;20115;-81
2024/01/04 04:03:08;;;;;;;14.40;6.63;;;;;;;7.01;100.00;99835.84;5122460;27;20064;-80
2024/01/04 04:05:33;;;;;;;12.60;7.07;;;;;;;7.03;100.00;99840.94;5097850;28;20031;-80
2024/01/04 04:07:59;;;;;;;12.75;7.38;;;;;;;7.05;100.00;99842.50;5124964;28;20031;-81
2024/01/04 04:10:24;;;;;;;13.63;7.57;;;;;;;7.07;100.00;99852.84;5107425;27;20066;-81
2024/01/04 04:12:50;;;;;;;16.05;7.18;;;;;;;7.08;100.00;99849.28;5115518;27;20115;-81
2024/01/04 04:15:18;;;;;;;14.07;8.20;;;;;;;7.11;100.00;99864.75;5128013;28;20015;-81
2024/01/04 04:17:43;;;;;;;16.13;8.50;;;;;;;7.13;100.00;99865.47;5127266;27;20023;-81
2024/01/04 04:20:09;;;;;;;18.08;8.95;;;;;;;7.14;100.00;99864.50;5103816;28;20124;-81
2024/01/04 04:22:34;;;;;;;19.63;9.18;;;;;;;7.14;100.00;99861.91;5121467;28;20110;-81
2024/01/04 04:25:00;;;;;;;15.05;8.95;;;;;;;7.14;100.00;99869.75;5126458;27;20072;-81
2024/01/04 04:27:25;;;;;;;14.75;8.90;;;;;;;7.14;100.00;99872.34;5112872;27;20021;-81
2024/01/04 04:29:51;;;;;;;14.45;8.98;;;;;;;7.16;100.00;99878.31;5115464;27;20467;-82
2024/01/04 04:32:17;;;;;;;20.45;9.30;;;;;;;7.16;100.00;99879.13;5092522;28;20050;-82
2024/01/04 04:34:43;;;;;;;15.07;9.10;;;;;;;7.17;100.00;99875.56;5111450;27;20032;-82
2024/01/04 04:37:08;;;;;;;16.35;10.00;;;;;;;7.15;100.00;99877.47;5093168;28;20030;-81
2024/01/04 04:39:33;;;;;;;19.27;9.77;;;;;;;7.18;100.00;99881.63;5108007;27;20042;-81
2024/01/04 04:41:59;;;;;;;14.10;8.70;;;;;;;7.17;100.00;99883.41;5130973;27;20035;-81
2024/01/04 04:44:24;;;;;;;15.38;8.63;;;;;;;7.16;100.00;99894.84;5108453;27;20034;-81
2024/01/04 04:46:49;;;;;;;13.50;8.00;;;;;;;7.15;100.00;99901.00;5126587;27;20030;-80
2024/01/04 04:49:15;;;;;;;15.82;7.45;;;;;;;7.17;100.00;99900.91;5116599;27;20028;-81
2024/01/04 04:51:40;;;;;;;11.65;7.35;;;;;;;7.16;100.00;99899.22;5110343;27;20497;-81
2024/01/04 04:54:06;;;;;;;10.43;6.50;;;;;;;7.16;100.00;99904.47;5104140;27;20035;-81
2024/01/04 04:56:31;;;;;;;12.52;6.63;;;;;;;7.15;100.00;99902.78;5095300;28;20023;-81
2024/01/04 04:58:56;;;;;;;10.40;6.85;;;;;;;7.15;100.00;99902.78;5121646;27;20489;-81
2024/01/04 05:01:22;;;;;;;11.90;7.22;;;;;;;7.15;100.00;99894.94;5098334;27;20383;-82
2024/01/04 05:03:47;;;;;;;13.82;7.18;;;;;;;7.14;100.00;99911.59;5113576;27;20150;-82
2024/01/04 05:06:13;;;;;;;13.60;8.02;;;;;;;7.15;100.00;99908.88;5098748;27;20031;-79
2024/01/04 05:08:38;;;;;;;16.42;9.25;;;;;;;7.14;100.00;99917.66;5111190;27;20078;-82
2024/01/04 05:11:06;;;;;;;19.77;9.85;;;;;;;7.14;100.00;99911.59;5120964;27;20026;-82
2024/01/04 05:13:33;;;;;;;18.90;9.93;;;;;;;7.14;100.00;99916.81;5113980;27;20055;-82
2024/01/04 05:15:58;;;;;;;15.05;9.75;;;;;;;7.12;100.00;99914.31;5112154;27;20016;-82
2024/01/04 05:18:24;;;;;;;21.48;10.20;;;;;;;7.11;100.00;99917.88;5122324;27;20042;-82
2024/01/04 05:20:49;;;;;;;16.25;9.95;;;;;;;7.09;100.00;99925.00;5131724;27;20029;-80
2024/01/04 05:23:14;;;;;;;13.65;9.90;;;;;;;7.05;100.00;99927.97;5129722;27;20035;-80
2024/01/04 05:25:40;;;;;;;14.98;10.00;;;;;;;7.01;100.00;99931.78;5131973;27;20019;-81
2024/01/04 05:28:05;;;;;;;12.82;8.82;;;;;;;6.95;100.00;99929.59;5127508;27;20027;-81
2024/01/04 05:30:31;;;;;;;17.05;9.23;;;;;;;6.93;100.00;99939.34;5113310;27;20037;-81
2024/01/04 05:32:56;;;;;;;11.75;8.10;;;;;;;6.89;100.00;99938.75;5128090;27;20038;-81
2024/01/04 05:35:22;;;;;;;9.68;6.60;;;;;;;6.87;100.00;99936.25;5117093;27;20054;-82
2024/01/04 05:37:47;;;;;;;8.60;5.75;;;;;;;6.86;100.00;99949.44;5114658;27;20030;-81
2024/01/04 05:40:12;;;;;;;6.70;4.82;;;;;;;6.85;100.00;99940.75;5129138;27;20526;-81
2024/01/04 05:42:38;;;;;;;8.32;4.63;;;;;;;6.85;100.00;99948.59;5116006;27;20031;-81
2024/01/04 05:45:04;;;;;;;9.43;4.32;;;;;;;6.84;100.00;99954.78;5092858;28;20015;-81
2024/01/04 05:47:30;;;;;;;5.85;3.88;;;;;;;6.83;100.00;99960.94;5092012;28;20434;-81
2024/01/04 05:49:55;;;;;;;8.25;3.83;;;;;;;6.86;100.00;99959.88;5122160;27;20015;-81
2024/01/04 05:52:21;;;;;;;7.38;3.85;;;;;;;6.84;100.00;99967.00;5105239;28;20517;-81
2024/01/04 05:54:46;;;;;;;7.40;3.25;;;;;;;6.82;100.00;99968.91;5092731;27;20050;-81
2024/01/04 05:57:11;;;;;;;6.63;3.00;;;;;;;6.79;100.00;99969.94;5129895;27;20497;-81
2024/01/04 05:59:37;;;;;;;10.00;3.30;;;;;;;6.79;100.00;99980.38;5103953;28;20399;-81
2024/01/04 06:02:02;;;;;;;5.22;3.22;;;;;;;6.78;100.00;99988.34;5114417;27;20042;-80
2024/01/04 06:04:27;;;;;;;7.15;3.80;;;;;;;6.79;100.00;99990.84;5120293;27;20557;-80
2024/01/04 06:06:53;;;;;;;6.18;3.30;;;;;;;6.80;100.00;99997.75;5097796;28;20034;-81
2024/01/04 06:09:20;;;;;;;7.47;3.60;;;;;;;6.80;100.00;99995.13;5110204;27;20057;-81
2024/01/04 06:11:50;;;;;;;9.00;4.18;;;;;;;6.81;100.00;100004.66;5108169;28;20023;-81
2024/01/04 06:14:16;;;;;;;6.22;4.05;;;;;;;6.81;100.00;100007.28;5099259;27;20046;-81
2024/01/04 06:16:41;;;;;;;7.20;4.30;;;;;;;6.83;100.00;100008.00;5111378;27;20555;-81
2024/01/04 06:19:07;;;;;;;8.65;4.68;;;;;;;6.85;100.00;100010.50;5109424;27;20386;-81
2024/01/04 06:21:32;;;;;;;8.10;4.75;;;;;;;6.86;100.00;100015.63;5109159;27;20030;-81
2024/01/04 06:23:59;;;;;;;9.70;5.00;;;;;;;6.86;100.00;100020.03;5091934;27;20118;-82
2024/01/04 06:26:25;;;;;;;10.75;5.00;;;;;;;6.88;100.00;100011.13;5109851;27;20037;-82
2024/01/04 06:28:50;;;;;;;9.40;5.57;;;;;;;6.88;100.00;100016.34;5129729;27;20053;-82
2024/01/04 06:31:16;;;;;;;9.48;5.88;;;;;;;6.89;100.00;100011.97;5128258;27;20064;-81
2024/01/04 06:33:41;;;;;;;9.30;5.53;;;;;;;6.88;100.00;100021.59;5129972;27;20053;-81
2024/01/04 06:36:07;;;;;;;12.70;5.68;;;;;;;6.88;100.00;100018.97;5130126;27;20067;-81
2024/01/04 06:38:35;;;;;;;12.13;5.90;;;;;;;6.90;100.00;100024.09;5126487;27;20019;-81
2024/01/04 06:41:02;;;;;;;9.73;5.95;;;;;;;6.90;100.00;100030.16;5130158;27;20019;-81
2024/01/04 06:43:28;;;;;;;12.20;6.50;;;;;;;6.90;100.00;100034.53;5128558;27;20428;-81
2024/01/04 06:45:54;;;;;;;10.57;6.55;;;;;;;6.90;100.00;100035.38;5122099;27;20023;-81
2024/01/04 06:48:19;;;;;;;8.88;5.93;;;;;;;6.88;100.00;100037.28;5109934;27;20482;-81
2024/01/04 06:50:44;;;;;;;8.93;5.38;;;;;;;6.85;100.00;100044.50;5129856;27;20031;-81
2024/01/04 06:53:16;;;;;;;8.43;5.65;;;;;;;6.82;100.00;100048.16;5130022;27;20058;-82
2024/01/04 06:55:42;;;;;;;9.70;5.47;;;;;;;6.77;100.00;100054.66;5130377;27;20023;-82
2024/01/04 06:58:09;;;;;;;8.43;5.70;;;;;;;6.76;100.00;100069.50;5112657;27;20069;-81
2024/01/04 07:00:35;;;;;;;12.15;5.80;;;;;;;6.75;100.00;100075.66;5123442;27;20401;-82
2024/01/04 07:03:00;;;;;;;11.35;5.78;;;;;;;6.75;100.00;100067.81;5127613;27;20076;-81
2024/01/04 07:05:26;;;;;;;11.90;5.40;;;;;;;6.76;100.00;100077.34;5104338;28;20027;-81
2024/01/04 07:07:51;;;;;;;10.80;5.50;;;;;;;6.76;100.00;100081.72;5112324;27;20092;-82
2024/01/04 07:10:16;;;;;;;10.63;5.55;;;;;;;6.76;100.00;100085.19;5107887;27;20086;-82
2024/01/04 07:12:43;;;;;;;8.93;5.13;;;;;;;6.77;100.00;100081.63;5113573;27;20027;-82
2024/01/04 07:15:09;;;;;;;12.73;5.50;;;;;;;6.80;100.00;100089.25;5096196;28;20426;-82
2024/01/04 07:17:34;;;;;;;12.65;5.78;;;;;;;6.82;100.00;100092.63;5126560;27;20033;-82
2024/01/04 07:20:00;;;;;;;15.07;5.93;;;;;;;6.85;100.00;100089.78;5105721;28;20023;-82
2024/01/04 07:22:25;;;;;;;12.65;6.05;;;;;;;6.85;100.00;100087.16;5109435;28;20033;-81
2024/01/04 07:24:50;;;;;;;16.55;6.35;;;;;;;6.87;100.00;100095.75;5108425;28;20016;-82
2024/01/04 07:27:16;;;;;;;16.00;6.88;;;;;;;6.87;100.00;100087.91;5089619;28;20055;-82
2024/01/04 07:29:41;;;;;;;12.05;6.65;;;;;;;6.89;100.00;100101.69;5090115;28;20027;-80
2024/01/04 07:32:07;;;;;;;16.52;7.18;;;;;;;6.88;100.00;100100.03;5115719;27;20027;-81
2024/01/04 07:34:36;;;;;;;19.30;8.35;;;;;;;6.87;100.00;100113.22;5119881;27;20026;-81
2024/01/04 07:37:02;;;;;;;16.40;8.88;;;;;;;6.88;100.00;100107.03;5119514;28;20395;-81
2024/01/04 07:39:27;;;;;;;15.95;9.00;;;;;;;6.85;100.00;100095.00;5119833;28;20019;-81
2024/01/04 07:41:53;;;;;;;18.50;9.82;;;;;;;6.84;100.00;100105.59;5119531;28;20101;-81
2024/01/04 07:44:18;;;;;;;18.73;10.18;;;;;;;6.80;100.00;100110.16;5098205;28;20034;-82
2024/01/04 07:46:43;;;;;;;18.33;9.68;;;;;;;6.79;100.00;100116.34;5125199;28;20039;-81
2024/01/04 07:49:09;;;;;;;17.77;10.27;;;;;;;6.76;100.00;100127.00;5128741;27;20027;-81
2024/01/04 07:51:34;;;;;;;18.23;10.05;;;;;;;6.74;100.00;100128.06;5126875;27;20039;-81
2024/01/04 07:54:00;;;;;;;19.85;10.73;;;;;;;6.72;100.00;100130.78;5109185;28;20019;-81
2024/01/04 07:56:25;;;;;;;18.50;10.18;;;;;;;6.71;100.00;100139.56;5098593;28;20031;-80
2024/01/04 07:58:51;;;;;;;18.52;9.88;;;;;;;6.71;100.00;100150.03;5120653;27;20100;-82
2024/01/04 08:01:16;;;;;;;15.98;9.65;;;;;;;6.71;100.00;100142.19;5122934;27;20019;-81
2024/01/04 08:03:42;;;;;;;14.93;9.65;;;;;;;6.72;100.00;100156.91;5112501;27;20712;-81
2024/01/04 08:06:08;;;;;;;15.80;9.38;;;;;;;6.72;100.00;100156.91;5114756;27;20027;-81
2024/01/04 08:08:33;;;;;;;14.35;8.48;;;;;;;6.75;100.00;100166.31;5123803;27;20043;-81
2024/01/04 08:11:02;;;;;;;18.20;8.18;;;;;;;6.75;100.00;100163.72;5099726;28;20034;-81
2024/01/04 08:13:28;;;;;;;13.82;7.63;;;;;;;6.78;100.00;100155.66;5115738;27;20799;-81
2024/01/04 08:15:53;;;;;;;12.77;7.35;;;;;;;6.78;100.00;100172.19;5113484;27;20023;-81
2024/01/04 08:18:22;;;;;;;14.85;7.40;;;;;;;6.82;100.00;100163.22;5126150;27;20027;-81
2024/01/04 08:20:48;;;;;;;11.95;5.80;;;;;;;6.83;100.00;100164.88;5115068;27;20030;-81
2024/01/04 08:23:14;;;;;;;10.10;4.68;;;;;;;6.85;100.00;100170.84;5115210;27;20034;-81
2024/01/04 08:25:40;;;;;;;10.73;4.82;;;;;;;6.88;100.00;100160.16;5094064;28;20028;-82
2024/01/04 08:28:06;;;;;;;10.40;4.47;;;;;;;6.91;100.00;100167.78;5112224;28;20098;-82
2024/01/04 08:30:31;;;;;;;11.13;4.47;;;;;;;6.92;100.00;100163.41;5111441;28;20035;-82
2024/01/04 08:32:56;;;;;;;9.30;4.55;;;;;;;6.94;100.00;100174.59;5112280;28;20030;-82
2024/01/04 08:35:22;;;;;;;8.60;4.10;;;;;;;6.94;100.00;100165.91;5113540;27;20023;-81
2024/01/04 08:37:49;;;;;;;8.57;4.15;;;;;;;6.94;100.00;100173.75;5104599;27;20030;-82
2024/01/04 08:40:17;;;;;;;7.85;4.10;;;;;;;6.94;100.00;100173.75;5130838;27;20123;-82
2024/01/04 08:42:43;;;;;;;10.18;3.83;;;;;;;6.96;100.00;100177.09;5131953;27;20027;-82
2024/01/04 08:45:10;;;;;;;6.95;3.35;;;;;;;6.91;100.00;100177.41;5129558;27;20494;-82
2024/01/04 08:47:35;;;;;;;6.47;3.78;;;;;;;6.91;100.00;100182.66;5118185;27;20890;-81
2024/01/04 08:50:01;;;;;;;6.25;3.72;;;;;;;6.90;100.00;100187.03;5111340;27;20118;-82
2024/01/04 08:52:30;;;;;;;5.68;3.65;;;;;;;6.90;100.00;100197.50;5105456;27;20489;-82
2024/01/04 08:54:55;;;;;;;6.05;3.70;;;;;;;6.91;100.00;100193.94;5131925;27;20031;-81
2024/01/04 08:57:21;;;;;;;6.28;3.55;;;;;;;6.91;100.00;100200.94;5130098;27;20027;-81
2024/01/04 08:59:47;;;;;;;8.38;3.55;;;;;;;6.89;100.00;100206.28;5129466;27;20404;-81
2024/01/04 09:02:12;;;;;;;6.80;3.13;;;;;;;6.90;100.00;100202.72;5123545;27;20020;-82
2024/01/04 09:04:38;;;;;;;9.27;2.90;;;;;;;6.87;100.00;100202.94;5130330;27;20026;-81
2024/01/04 09:07:03;;;;;;;9.38;3.25;;;;;;;6.90;100.00;100213.19;5131278;27;20031;-81
2024/01/04 09:09:29;;;;;;;4.90;3.00;;;;;;;6.88;100.00;100204.63;5123670;27;20491;-80
2024/01/04 09:11:54;;;;;;;5.15;2.55;;;;;;;6.88;100.00;100211.63;5128996;27;20071;-80
2024/01/04 09:14:19;;;;;;;6.25;2.60;;;;;;;6.92;100.00;100210.47;5129808;27;20023;-80
2024/01/04 09:16:45;;;;;;;3.35;2.15;;;;;;;6.93;100.00;100219.16;5103047;27;20030;-80
2024/01/04 09:19:19;;;;;;;5.05;2.15;;;;;;;6.97;100.00;100233.69;5111542;27;20031;-81
2024/01/04 09:21:49;;;;;;;3.90;2.10;;;;;;;6.94;100.00;100223.44;5110419;27;20536;-81
2024/01/04 09:24:18;;;;;;;5.82;1.95;;;;;;;6.98;100.00;100220.50;5117697;27;20713;-82
2024/01/04 09:26:45;;;;;;;3.15;1.75;;;;;;;7.01;100.00;100229.91;5111212;27;20059;-82
2024/01/04 09:29:13;;;;;;;3.45;1.90;;;;;;;7.07;100.00;100225.09;5106442;27;20019;-82
2024/01/04 09:31:40;;;;;;;5.13;2.20;;;;;;;7.09;100.00;100230.22;5111908;27;20395;-81
2024/01/04 09:34:05;;;;;;;3.55;1.90;;;;;;;7.16;100.00;100242.75;5128055;27;20034;-82
2024/01/04 09:36:31;;;;;;;4.45;2.00;;;;;;;7.18;100.00;100234.81;5131341;27;20238;-82
2024/01/04 09:38:56;;;;;;;3.60;1.70;;;;;;;7.24;100.00;100242.25;5125471;27;20031;-82
2024/01/04 09:41:30;;;;;;;4.72;2.08;;;;;;;7.28;100.00;100245.47;5126536;27;20364;-81
2024/01/04 09:44:01;;;;;;;4.57;1.95;;;;;;;7.29;100.00;100257.63;5122522;27;20383;-81
2024/01/04 09:46:33;;;;;;;4.75;1.90;;;;;;;7.25;100.00;100257.00;5110115;28;20023;-81
2024/01/04 09:49:01;;;;;;;2.92;1.80;;;;;;;7.26;100.00;100257.84;5093841;27;20049;-81
2024/01/04 09:51:34;;;;;;;4.50;2.10;;;;;;;7.23;100.00;100264.97;5095293;27;20023;-81
2024/01/04 09:54:01;;;;;;;4.15;1.88;;;;;;;7.22;100.00;100262.44;5110471;27;20151;-81
2024/01/04 09:56:28;;;;;;;8.18;2.10;;;;;;;7.21;100.00;100268.63;5091686;28;20110;-81
2024/01/04 09:58:53;;;;;;;3.25;2.10;;;;;;;7.19;100.00;100273.09;5123815;27;20027;-81
2024/01/04 10:01:23;;;;;;;4.07;2.00;;;;;;;7.18;100.00;100268.81;5115898;27;20023;-80
2024/01/04 10:03:49;;;;;;;4.30;2.50;;;;;;;7.20;100.00;100280.00;5110532;27;20127;-81
2024/01/04 10:06:35;;;;;;;5.40;2.60;;;;;;;7.21;100.00;100284.31;5129568;27;20174;-81
2024/01/04 10:09:17;;;;;;;4.93;2.95;;;;;;;7.19;100.00;100286.19;5121654;27;20070;-81
2024/01/04 10:12:02;;;;;;;5.10;2.80;;;;;;;7.19;100.00;100292.25;5114378;27;20020;-81
2024/01/04 10:14:28;;;;;;;5.40;2.88;;;;;;;7.16;100.00;100294.25;5090519;28;20539;-81
2024/01/04 10:16:58;;;;;;;4.15;2.90;;;;;;;7.19;100.00;100291.41;5109951;28;20032;-81
2024/01/04 10:19:24;;;;;;;4.40;2.70;;;;;;;7.20;100.00;100298.31;5110624;27;20395;-82
2024/01/04 10:21:50;;;;;;;5.90;3.10;;;;;;;7.19;100.00;100294.88;5124251;27;20073;-81
2024/01/04 10:24:23;;;;;;;4.78;2.88;;;;;;;7.19;100.00;100297.47;5114944;27;20395;-81
2024/01/04 10:26:59;;;;;;;5.32;2.63;;;;;;;7.19;100.00;100302.72;5109204;27;20038;-81
2024/01/04 10:29:29;;;;;;;3.67;2.30;;;;;;;7.19;100.00;100301.88;5123502;27;20111;-81
2024/01/04 10:32:05;;;;;;;3.65;2.25;;;;;;;7.17;100.00;100303.75;5101395;27;20424;-81
2024/01/04 10:34:34;;;;;;;2.95;2.20;;;;;;;7.16;100.00;100307.31;5098320;27;20037;-81
2024/01/04 10:37:08;;;;;;;2.58;1.60;;;;;;;7.18;100.00;100308.06;5093880;27;20068;-81
2024/01/04 10:39:37;;;;;;;3.25;1.55;;;;;;;7.18;100.00;100300.19;5121961;27;20034;-81
2024/01/04 10:42:02;;;;;;;2.58;1.30;;;;;;;7.23;100.00;100305.97;5123758;27;20031;-81
2024/01/04 10:44:29;;;;;;;2.65;1.45;;;;;;;7.23;100.00;100311.22;5127311;27;20448;-81
2024/01/04 10:46:59;;;;;;;2.67;1.30;;;;;;;7.26;100.00;100307.56;5094577;28;20026;-82
2024/01/04 10:49:25;;;;;;;2.45;1.10;;;;;;;7.24;100.00;100299.81;5095335;28;20038;-80
2024/01/04 10:51:52;;;;;;;2.42;1.10;;;;;;;7.28;100.00;100311.75;5115513;27;20019;-81
2024/01/04 10:54:19;;;;;;;3.85;1.17;;;;;;;7.32;100.00;100307.97;5095406;27;20039;-80
2024/01/04 10:56:45;;;;;;;2.75;1.10;;;;;;;7.37;100.00;100311.09;5121082;27;20019;-80
2024/01/04 10:59:12;;;;;;;3.72;1.20;;;;;;;7.39;100.00;100313.59;5090344;28;20030;-80
2024/01/04 11:01:41;;;;;;;3.95;1.10;;;;;;;7.43;100.00;100321.13;5108748;27;20073;-81
2024/01/04 11:04:06;;;;;;;3.95;1.10;;;;;;;7.49;100.00;100312.84;5109173;27;20047;-80
2024/01/04 11:06:39;;;;;;;3.65;1.27;;;;;;;7.56;100.00;100321.09;5115575;27;20062;-80
2024/01/04 11:09:06;;;;;;;4.30;1.33;;;;;;;7.65;100.00;100315.25;5121970;27;20067;-80
2024/01/04 11:11:34;;;;;;;5.80;1.38;;;;;;;7.65;100.00;100319.66;5117495;27;20031;-80
2024/01/04 11:14:00;;;;;;;4.50;1.25;;;;;;;7.64;100.00;100317.97;5124518;27;20035;-80
2024/01/04 11:16:56;;;;;;;5.70;1.40;;;;;;;7.63;100.00;100327.63;5129031;27;20065;-80
2024/01/04 11:19:43;;;;;;;4.45;1.70;;;;;;;7.66;100.00;100321.31;5120229;27;20399;-80